Lakeside, Montana
Current Conditions -  °F | °C
As of 9:55 PM on Saturday 25 Oct 2014 (Local Time) from KGPI Reporting Station
Broken Clouds Broken Clouds  
Wind Chill: 37°   Ceiling: 9500
Heat Index: 40°   Visibility: 10mi
Dew Point: 38°   Wind: 5mph
Humidity: 93%   Direction: 10°N
Pressure: 29.6"   Gusts: NA
Location:  48.02°N, 114.23°W
Report Text: KGPI 260355Z 01004KT 10SM BKN095 04/03 A2960 RMK AO2 SLP031 T00440033
Loading
Personal Weather Stations






























Interactive Weather Map
Tropical Storm Tracking
New forecast layout! Learn more

10-Day Weather Forecast

Advertisements
Track Severe Weather on mobile